sensor_id;sensor_type;location;lat;lon;timestamp;temperature;humidity
17891;DHT22;9071;48.220;14.480;2023-07-02T00:04:50;16.00;99.90
17891;DHT22;9071;48.220;14.480;2023-07-02T00:09:52;16.10;99.90
17891;DHT22;9071;48.220;14.480;2023-07-02T00:14:56;16.20;99.90
17891;DHT22;9071;48.220;14.480;2023-07-02T00:20:00;16.30;99.90
17891;DHT22;9071;48.220;14.480;2023-07-02T00:25:07;16.40;99.90
17891;DHT22;9071;48.220;14.480;2023-07-02T00:30:10;16.50;99.90
17891;DHT22;9071;48.220;14.480;2023-07-02T00:35:14;16.60;99.90
17891;DHT22;9071;48.220;14.480;2023-07-02T00:40:16;16.60;99.90
17891;DHT22;9071;48.220;14.480;2023-07-02T00:45:21;16.60;99.90
17891;DHT22;9071;48.220;14.480;2023-07-02T00:50:28;16.60;99.90
17891;DHT22;9071;48.220;14.480;2023-07-02T00:55:31;16.60;99.90
17891;DHT22;9071;48.220;14.480;2023-07-02T01:00:33;16.70;99.90
17891;DHT22;9071;48.220;14.480;2023-07-02T01:05:36;16.70;99.90
17891;DHT22;9071;48.220;14.480;2023-07-02T01:10:38;16.60;99.90
17891;DHT22;9071;48.220;14.480;2023-07-02T01:15:42;16.70;99.90
17891;DHT22;9071;48.220;14.480;2023-07-02T01:20:46;16.60;99.90
17891;DHT22;9071;48.220;14.480;2023-07-02T01:25:51;16.60;99.90
17891;DHT22;9071;48.220;14.480;2023-07-02T01:30:53;16.60;99.90
17891;DHT22;9071;48.220;14.480;2023-07-02T01:35:57;16.60;99.90
17891;DHT22;9071;48.220;14.480;2023-07-02T01:40:59;16.60;99.90
17891;DHT22;9071;48.220;14.480;2023-07-02T01:46:01;16.60;99.90
17891;DHT22;9071;48.220;14.480;2023-07-02T01:51:04;16.60;99.90
17891;DHT22;9071;48.220;14.480;2023-07-02T01:56:06;16.70;99.90
17891;DHT22;9071;48.220;14.480;2023-07-02T02:01:08;16.60;99.90
17891;DHT22;9071;48.220;14.480;2023-07-02T02:06:12;16.70;99.90
17891;DHT22;9071;48.220;14.480;2023-07-02T02:11:14;16.70;99.90
17891;DHT22;9071;48.220;14.480;2023-07-02T02:16:16;16.80;99.90
17891;DHT22;9071;48.220;14.480;2023-07-02T02:21:20;16.80;99.90
17891;DHT22;9071;48.220;14.480;2023-07-02T02:26:22;17.10;99.90
17891;DHT22;9071;48.220;14.480;2023-07-02T02:31:25;17.40;99.90
17891;DHT22;9071;48.220;14.480;2023-07-02T02:36:29;17.70;99.90
17891;DHT22;9071;48.220;14.480;2023-07-02T02:41:31;17.90;99.90
17891;DHT22;9071;48.220;14.480;2023-07-02T02:46:34;18.00;99.90
17891;DHT22;9071;48.220;14.480;2023-07-02T02:51:37;18.10;99.90
17891;DHT22;9071;48.220;14.480;2023-07-02T02:56:42;18.10;99.90
17891;DHT22;9071;48.220;14.480;2023-07-02T03:01:44;18.10;99.90
17891;DHT22;9071;48.220;14.480;2023-07-02T03:06:48;18.10;99.90
17891;DHT22;9071;48.220;14.480;2023-07-02T03:11:50;18.10;99.90
17891;DHT22;9071;48.220;14.480;2023-07-02T03:16:52;18.10;99.90
17891;DHT22;9071;48.220;14.480;2023-07-02T03:21:56;18.10;99.90
17891;DHT22;9071;48.220;14.480;2023-07-02T03:26:58;18.20;99.90
17891;DHT22;9071;48.220;14.480;2023-07-02T03:32:00;18.10;99.90
17891;DHT22;9071;48.220;14.480;2023-07-02T03:37:04;18.10;99.90
17891;DHT22;9071;48.220;14.480;2023-07-02T03:42:07;18.10;99.90
17891;DHT22;9071;48.220;14.480;2023-07-02T03:47:10;18.20;99.90
17891;DHT22;9071;48.220;14.480;2023-07-02T03:52:14;18.20;99.90
17891;DHT22;9071;48.220;14.480;2023-07-02T03:57:16;18.20;99.90
17891;DHT22;9071;48.220;14.480;2023-07-02T04:02:19;18.10;99.90
17891;DHT22;9071;48.220;14.480;2023-07-02T04:07:22;18.10;99.90
17891;DHT22;9071;48.220;14.480;2023-07-02T04:12:24;18.00;99.90
17891;DHT22;9071;48.220;14.480;2023-07-02T04:17:26;18.00;99.90
17891;DHT22;9071;48.220;14.480;2023-07-02T04:22:30;18.00;99.90
17891;DHT22;9071;48.220;14.480;2023-07-02T04:27:32;18.00;99.90
17891;DHT22;9071;48.220;14.480;2023-07-02T04:32:34;18.00;99.90
17891;DHT22;9071;48.220;14.480;2023-07-02T04:37:37;18.00;99.90
17891;DHT22;9071;48.220;14.480;2023-07-02T04:42:41;18.00;99.90
17891;DHT22;9071;48.220;14.480;2023-07-02T04:47:47;18.20;99.90
17891;DHT22;9071;48.220;14.480;2023-07-02T04:52:50;18.40;99.90
17891;DHT22;9071;48.220;14.480;2023-07-02T04:57:53;18.40;99.90
17891;DHT22;9071;48.220;14.480;2023-07-02T05:02:55;18.60;99.90
17891;DHT22;9071;48.220;14.480;2023-07-02T05:07:58;18.80;99.90
17891;DHT22;9071;48.220;14.480;2023-07-02T05:13:00;19.10;99.90
17891;DHT22;9071;48.220;14.480;2023-07-02T05:18:02;19.30;99.90
17891;DHT22;9071;48.220;14.480;2023-07-02T05:23:06;19.40;99.90
17891;DHT22;9071;48.220;14.480;2023-07-02T05:28:08;19.60;99.90
17891;DHT22;9071;48.220;14.480;2023-07-02T05:33:11;20.30;99.90
17891;DHT22;9071;48.220;14.480;2023-07-02T05:38:15;20.90;99.90
17891;DHT22;9071;48.220;14.480;2023-07-02T05:43:17;21.90;99.90
17891;DHT22;9071;48.220;14.480;2023-07-02T05:48:20;22.60;99.90
17891;DHT22;9071;48.220;14.480;2023-07-02T05:53:23;22.50;99.90
17891;DHT22;9071;48.220;14.480;2023-07-02T05:58:25;21.90;99.90
17891;DHT22;9071;48.220;14.480;2023-07-02T06:03:27;21.30;99.90
17891;DHT22;9071;48.220;14.480;2023-07-02T06:08:31;21.00;99.90
17891;DHT22;9071;48.220;14.480;2023-07-02T06:13:33;20.90;99.90
17891;DHT22;9071;48.220;14.480;2023-07-02T06:18:35;20.70;99.90
17891;DHT22;9071;48.220;14.480;2023-07-02T06:23:42;20.70;99.90
17891;DHT22;9071;48.220;14.480;2023-07-02T06:28:44;20.60;99.90
17891;DHT22;9071;48.220;14.480;2023-07-02T06:33:46;20.60;99.90
17891;DHT22;9071;48.220;14.480;2023-07-02T06:38:50;20.50;99.90
17891;DHT22;9071;48.220;14.480;2023-07-02T06:43:52;20.20;99.90
17891;DHT22;9071;48.220;14.480;2023-07-02T06:48:55;19.80;99.90
17891;DHT22;9071;48.220;14.480;2023-07-02T06:53:58;19.50;99.90
17891;DHT22;9071;48.220;14.480;2023-07-02T06:59:00;19.30;99.90
17891;DHT22;9071;48.220;14.480;2023-07-02T07:04:03;19.40;99.90
17891;DHT22;9071;48.220;14.480;2023-07-02T07:09:06;19.50;99.90
17891;DHT22;9071;48.220;14.480;2023-07-02T07:14:08;19.80;99.90
17891;DHT22;9071;48.220;14.480;2023-07-02T07:19:10;20.40;99.90
17891;DHT22;9071;48.220;14.480;2023-07-02T07:24:14;20.70;99.90
17891;DHT22;9071;48.220;14.480;2023-07-02T07:29:16;20.70;99.90
17891;DHT22;9071;48.220;14.480;2023-07-02T07:34:18;20.90;99.90
17891;DHT22;9071;48.220;14.480;2023-07-02T07:39:21;21.20;99.90
17891;DHT22;9071;48.220;14.480;2023-07-02T07:44:24;21.60;99.90
17891;DHT22;9071;48.220;14.480;2023-07-02T07:49:29;22.20;99.90
17891;DHT22;9071;48.220;14.480;2023-07-02T07:54:32;22.70;99.90
17891;DHT22;9071;48.220;14.480;2023-07-02T07:59:35;22.50;99.90
17891;DHT22;9071;48.220;14.480;2023-07-02T08:04:37;22.30;99.90
17891;DHT22;9071;48.220;14.480;2023-07-02T08:09:41;21.90;99.90
17891;DHT22;9071;48.220;14.480;2023-07-02T08:14:43;21.50;99.90
17891;DHT22;9071;48.220;14.480;2023-07-02T08:19:45;21.80;99.90
17891;DHT22;9071;48.220;14.480;2023-07-02T08:24:48;22.30;99.90
17891;DHT22;9071;48.220;14.480;2023-07-02T08:29:51;22.90;99.90
17891;DHT22;9071;48.220;14.480;2023-07-02T08:34:53;22.60;99.90
17891;DHT22;9071;48.220;14.480;2023-07-02T08:39:56;22.30;99.90
17891;DHT22;9071;48.220;14.480;2023-07-02T08:44:59;22.30;99.90
17891;DHT22;9071;48.220;14.480;2023-07-02T08:50:02;22.50;99.90
17891;DHT22;9071;48.220;14.480;2023-07-02T08:55:07;23.30;99.90
17891;DHT22;9071;48.220;14.480;2023-07-02T09:00:11;23.50;99.90
17891;DHT22;9071;48.220;14.480;2023-07-02T09:05:13;23.30;99.90
17891;DHT22;9071;48.220;14.480;2023-07-02T09:10:27;22.90;99.90
17891;DHT22;9071;48.220;14.480;2023-07-02T09:15:35;23.10;99.90
17891;DHT22;9071;48.220;14.480;2023-07-02T09:20:38;23.90;99.90
17891;DHT22;9071;48.220;14.480;2023-07-02T09:25:41;24.00;99.90
17891;DHT22;9071;48.220;14.480;2023-07-02T09:30:51;24.50;99.90
17891;DHT22;9071;48.220;14.480;2023-07-02T09:35:53;24.20;99.90
17891;DHT22;9071;48.220;14.480;2023-07-02T09:40:57;24.50;99.90
17891;DHT22;9071;48.220;14.480;2023-07-02T09:45:59;24.50;99.90
17891;DHT22;9071;48.220;14.480;2023-07-02T09:51:02;24.50;99.90
17891;DHT22;9071;48.220;14.480;2023-07-02T09:56:07;23.80;99.90
17891;DHT22;9071;48.220;14.480;2023-07-02T10:01:09;23.50;99.90
17891;DHT22;9071;48.220;14.480;2023-07-02T10:06:11;23.30;99.90
17891;DHT22;9071;48.220;14.480;2023-07-02T10:11:15;22.80;99.90
17891;DHT22;9071;48.220;14.480;2023-07-02T10:16:17;22.70;99.90
17891;DHT22;9071;48.220;14.480;2023-07-02T10:21:21;22.70;99.90
17891;DHT22;9071;48.220;14.480;2023-07-02T10:26:24;22.90;99.90
17891;DHT22;9071;48.220;14.480;2023-07-02T10:31:27;22.90;99.90
17891;DHT22;9071;48.220;14.480;2023-07-02T10:36:30;23.10;99.90
17891;DHT22;9071;48.220;14.480;2023-07-02T10:41:33;22.90;99.90
17891;DHT22;9071;48.220;14.480;2023-07-02T10:46:43;22.40;99.90
17891;DHT22;9071;48.220;14.480;2023-07-02T10:51:56;21.80;99.90
17891;DHT22;9071;48.220;14.480;2023-07-02T10:56:59;21.60;99.90
17891;DHT22;9071;48.220;14.480;2023-07-02T11:02:01;21.90;99.90
17891;DHT22;9071;48.220;14.480;2023-07-02T11:07:04;21.90;99.90
17891;DHT22;9071;48.220;14.480;2023-07-02T11:12:08;22.00;99.90
17891;DHT22;9071;48.220;14.480;2023-07-02T11:17:10;22.30;99.90
17891;DHT22;9071;48.220;14.480;2023-07-02T11:22:12;22.30;99.90
17891;DHT22;9071;48.220;14.480;2023-07-02T11:27:22;22.50;99.90
17891;DHT22;9071;48.220;14.480;2023-07-02T11:32:24;23.10;99.90
17891;DHT22;9071;48.220;14.480;2023-07-02T11:37:26;23.40;99.90
17891;DHT22;9071;48.220;14.480;2023-07-02T11:42:31;23.10;99.90
17891;DHT22;9071;48.220;14.480;2023-07-02T11:47:33;22.80;99.90
17891;DHT22;9071;48.220;14.480;2023-07-02T11:52:35;22.20;99.90
17891;DHT22;9071;48.220;14.480;2023-07-02T11:57:39;21.70;99.90
17891;DHT22;9071;48.220;14.480;2023-07-02T12:02:41;21.20;99.90
17891;DHT22;9071;48.220;14.480;2023-07-02T12:07:43;20.80;99.90
17891;DHT22;9071;48.220;14.480;2023-07-02T12:12:46;20.70;99.90
17891;DHT22;9071;48.220;14.480;2023-07-02T12:17:48;20.80;99.90
17891;DHT22;9071;48.220;14.480;2023-07-02T12:22:50;21.70;99.90
17891;DHT22;9071;48.220;14.480;2023-07-02T12:27:54;22.70;99.90
17891;DHT22;9071;48.220;14.480;2023-07-02T12:32:56;23.10;99.90
17891;DHT22;9071;48.220;14.480;2023-07-02T12:37:58;23.10;99.90
17891;DHT22;9071;48.220;14.480;2023-07-02T12:43:01;23.10;99.90
17891;DHT22;9071;48.220;14.480;2023-07-02T12:48:05;22.90;99.90
17891;DHT22;9071;48.220;14.480;2023-07-02T12:53:07;22.80;99.90
17891;DHT22;9071;48.220;14.480;2023-07-02T12:58:10;22.90;99.90
17891;DHT22;9071;48.220;14.480;2023-07-02T13:03:14;22.70;99.90
17891;DHT22;9071;48.220;14.480;2023-07-02T13:08:16;22.20;99.90
17891;DHT22;9071;48.220;14.480;2023-07-02T13:13:19;22.30;99.90
17891;DHT22;9071;48.220;14.480;2023-07-02T13:18:22;22.40;99.90
17891;DHT22;9071;48.220;14.480;2023-07-02T13:23:24;22.60;99.90
17891;DHT22;9071;48.220;14.480;2023-07-02T13:28:27;22.60;99.90
17891;DHT22;9071;48.220;14.480;2023-07-02T13:33:29;22.50;99.90
17891;DHT22;9071;48.220;14.480;2023-07-02T13:38:32;22.40;99.90
17891;DHT22;9071;48.220;14.480;2023-07-02T13:43:35;22.50;99.90
17891;DHT22;9071;48.220;14.480;2023-07-02T13:48:37;22.20;99.90
17891;DHT22;9071;48.220;14.480;2023-07-02T13:53:39;22.50;99.90
17891;DHT22;9071;48.220;14.480;2023-07-02T13:59:00;22.30;99.90
17891;DHT22;9071;48.220;14.480;2023-07-02T14:04:03;22.30;99.90
17891;DHT22;9071;48.220;14.480;2023-07-02T14:09:05;22.40;99.90
17891;DHT22;9071;48.220;14.480;2023-07-02T14:14:09;22.30;99.90
17891;DHT22;9071;48.220;14.480;2023-07-02T14:19:11;22.40;99.90
17891;DHT22;9071;48.220;14.480;2023-07-02T14:24:14;22.90;99.90
17891;DHT22;9071;48.220;14.480;2023-07-02T14:29:18;23.00;99.90
17891;DHT22;9071;48.220;14.480;2023-07-02T14:34:20;23.30;99.90
17891;DHT22;9071;48.220;14.480;2023-07-02T14:39:22;23.50;99.90
17891;DHT22;9071;48.220;14.480;2023-07-02T14:44:25;23.50;99.90
17891;DHT22;9071;48.220;14.480;2023-07-02T14:49:27;23.70;99.90
17891;DHT22;9071;48.220;14.480;2023-07-02T14:54:30;24.30;99.90
17891;DHT22;9071;48.220;14.480;2023-07-02T14:59:33;24.20;99.90
17891;DHT22;9071;48.220;14.480;2023-07-02T15:04:35;24.10;99.90
17891;DHT22;9071;48.220;14.480;2023-07-02T15:09:37;24.50;99.90
17891;DHT22;9071;48.220;14.480;2023-07-02T15:14:41;24.50;99.90
17891;DHT22;9071;48.220;14.480;2023-07-02T15:19:43;24.80;99.90
17891;DHT22;9071;48.220;14.480;2023-07-02T15:24:46;24.70;99.90
17891;DHT22;9071;48.220;14.480;2023-07-02T15:29:49;25.00;99.90
17891;DHT22;9071;48.220;14.480;2023-07-02T15:34:51;24.50;99.90
17891;DHT22;9071;48.220;14.480;2023-07-02T15:39:53;24.20;99.90
17891;DHT22;9071;48.220;14.480;2023-07-02T15:44:57;24.40;99.90
17891;DHT22;9071;48.220;14.480;2023-07-02T15:49:59;24.80;99.90
17891;DHT22;9071;48.220;14.480;2023-07-02T15:55:01;24.60;99.90
17891;DHT22;9071;48.220;14.480;2023-07-02T16:00:06;24.80;99.90
17891;DHT22;9071;48.220;14.480;2023-07-02T16:05:09;24.70;99.90
17891;DHT22;9071;48.220;14.480;2023-07-02T16:10:12;24.60;99.90
17891;DHT22;9071;48.220;14.480;2023-07-02T16:15:16;24.40;99.90
17891;DHT22;9071;48.220;14.480;2023-07-02T16:20:18;24.30;99.90
17891;DHT22;9071;48.220;14.480;2023-07-02T16:25:20;24.20;99.90
17891;DHT22;9071;48.220;14.480;2023-07-02T16:30:25;24.00;99.90
17891;DHT22;9071;48.220;14.480;2023-07-02T16:35:27;24.20;99.90
17891;DHT22;9071;48.220;14.480;2023-07-02T16:40:29;24.10;99.90
17891;DHT22;9071;48.220;14.480;2023-07-02T16:45:33;24.20;99.90
17891;DHT22;9071;48.220;14.480;2023-07-02T16:50:35;24.00;99.90
17891;DHT22;9071;48.220;14.480;2023-07-02T16:55:37;23.90;99.90
17891;DHT22;9071;48.220;14.480;2023-07-02T17:00:43;23.80;99.90
17891;DHT22;9071;48.220;14.480;2023-07-02T17:05:45;23.60;99.90
17891;DHT22;9071;48.220;14.480;2023-07-02T17:10:47;23.60;99.90
17891;DHT22;9071;48.220;14.480;2023-07-02T17:15:51;23.80;99.90
17891;DHT22;9071;48.220;14.480;2023-07-02T17:20:53;24.00;99.90
17891;DHT22;9071;48.220;14.480;2023-07-02T17:25:59;23.90;99.90
17891;DHT22;9071;48.220;14.480;2023-07-02T17:31:03;23.80;99.90
17891;DHT22;9071;48.220;14.480;2023-07-02T17:36:06;23.80;99.90
17891;DHT22;9071;48.220;14.480;2023-07-02T17:41:08;23.70;99.90
17891;DHT22;9071;48.220;14.480;2023-07-02T17:46:13;23.70;99.90
17891;DHT22;9071;48.220;14.480;2023-07-02T17:51:15;23.60;99.90
17891;DHT22;9071;48.220;14.480;2023-07-02T17:56:17;23.40;99.90
17891;DHT22;9071;48.220;14.480;2023-07-02T18:01:21;23.10;99.90
17891;DHT22;9071;48.220;14.480;2023-07-02T18:06:24;22.90;99.90
17891;DHT22;9071;48.220;14.480;2023-07-02T18:11:26;22.80;99.90
17891;DHT22;9071;48.220;14.480;2023-07-02T18:16:30;22.80;99.90
17891;DHT22;9071;48.220;14.480;2023-07-02T18:21:32;22.70;99.90
17891;DHT22;9071;48.220;14.480;2023-07-02T18:26:34;22.50;99.90
17891;DHT22;9071;48.220;14.480;2023-07-02T18:31:38;22.40;99.90
17891;DHT22;9071;48.220;14.480;2023-07-02T18:36:40;22.20;99.90
17891;DHT22;9071;48.220;14.480;2023-07-02T18:41:47;22.10;99.90
17891;DHT22;9071;48.220;14.480;2023-07-02T18:46:51;21.90;99.90
17891;DHT22;9071;48.220;14.480;2023-07-02T18:51:53;21.70;99.90
17891;DHT22;9071;48.220;14.480;2023-07-02T18:56:56;21.60;99.90
17891;DHT22;9071;48.220;14.480;2023-07-02T19:02:00;21.50;99.90
17891;DHT22;9071;48.220;14.480;2023-07-02T19:07:03;21.40;99.90
17891;DHT22;9071;48.220;14.480;2023-07-02T19:12:08;21.30;99.90
17891;DHT22;9071;48.220;14.480;2023-07-02T19:17:13;21.20;99.90
17891;DHT22;9071;48.220;14.480;2023-07-02T19:22:16;21.00;99.90
17891;DHT22;9071;48.220;14.480;2023-07-02T19:27:19;20.90;99.90
17891;DHT22;9071;48.220;14.480;2023-07-02T19:32:24;20.70;99.90
17891;DHT22;9071;48.220;14.480;2023-07-02T19:37:26;20.40;99.90
17891;DHT22;9071;48.220;14.480;2023-07-02T19:42:29;20.10;99.90
17891;DHT22;9071;48.220;14.480;2023-07-02T19:47:32;19.80;99.90
17891;DHT22;9071;48.220;14.480;2023-07-02T19:52:35;19.60;99.90
17891;DHT22;9071;48.220;14.480;2023-07-02T19:57:37;19.40;99.90
17891;DHT22;9071;48.220;14.480;2023-07-02T20:02:40;19.20;99.90
17891;DHT22;9071;48.220;14.480;2023-07-02T20:07:44;19.10;99.90
17891;DHT22;9071;48.220;14.480;2023-07-02T20:12:46;19.00;99.90
17891;DHT22;9071;48.220;14.480;2023-07-02T20:17:50;18.90;99.90
17891;DHT22;9071;48.220;14.480;2023-07-02T20:22:52;18.80;99.90
17891;DHT22;9071;48.220;14.480;2023-07-02T20:27:54;18.60;99.90
17891;DHT22;9071;48.220;14.480;2023-07-02T20:32:58;18.50;99.90
17891;DHT22;9071;48.220;14.480;2023-07-02T20:38:00;18.40;99.90
17891;DHT22;9071;48.220;14.480;2023-07-02T20:43:02;18.50;99.90
17891;DHT22;9071;48.220;14.480;2023-07-02T20:48:06;18.60;99.90
17891;DHT22;9071;48.220;14.480;2023-07-02T20:53:10;18.70;99.90
17891;DHT22;9071;48.220;14.480;2023-07-02T20:58:12;18.80;99.90
17891;DHT22;9071;48.220;14.480;2023-07-02T21:03:16;18.90;99.90
17891;DHT22;9071;48.220;14.480;2023-07-02T21:08:18;18.90;99.90
17891;DHT22;9071;48.220;14.480;2023-07-02T21:13:20;19.00;99.90
17891;DHT22;9071;48.220;14.480;2023-07-02T21:18:23;18.90;99.90
17891;DHT22;9071;48.220;14.480;2023-07-02T21:23:25;18.90;99.90
17891;DHT22;9071;48.220;14.480;2023-07-02T21:28:28;18.80;99.90
17891;DHT22;9071;48.220;14.480;2023-07-02T21:33:31;18.70;99.90
17891;DHT22;9071;48.220;14.480;2023-07-02T21:38:34;18.70;99.90
17891;DHT22;9071;48.220;14.480;2023-07-02T21:43:36;18.70;99.90
17891;DHT22;9071;48.220;14.480;2023-07-02T21:48:40;18.60;99.90
17891;DHT22;9071;48.220;14.480;2023-07-02T21:53:42;18.60;99.90
17891;DHT22;9071;48.220;14.480;2023-07-02T21:58:44;18.50;99.90
17891;DHT22;9071;48.220;14.480;2023-07-02T22:03:50;18.40;99.90
17891;DHT22;9071;48.220;14.480;2023-07-02T22:08:52;18.30;99.90
17891;DHT22;9071;48.220;14.480;2023-07-02T22:13:54;18.30;99.90
17891;DHT22;9071;48.220;14.480;2023-07-02T22:18:57;18.20;99.90
17891;DHT22;9071;48.220;14.480;2023-07-02T22:24:00;18.20;99.90
17891;DHT22;9071;48.220;14.480;2023-07-02T22:29:02;18.00;99.90
17891;DHT22;9071;48.220;14.480;2023-07-02T22:34:05;17.90;99.90
17891;DHT22;9071;48.220;14.480;2023-07-02T22:39:08;17.80;99.90
17891;DHT22;9071;48.220;14.480;2023-07-02T22:44:10;17.70;99.90
17891;DHT22;9071;48.220;14.480;2023-07-02T22:49:13;17.60;99.90
17891;DHT22;9071;48.220;14.480;2023-07-02T22:54:15;17.50;99.90
17891;DHT22;9071;48.220;14.480;2023-07-02T22:59:17;17.60;99.90
17891;DHT22;9071;48.220;14.480;2023-07-02T23:04:21;17.70;99.90
17891;DHT22;9071;48.220;14.480;2023-07-02T23:09:23;17.60;99.90
17891;DHT22;9071;48.220;14.480;2023-07-02T23:14:26;17.40;99.90
17891;DHT22;9071;48.220;14.480;2023-07-02T23:19:30;17.20;99.90
17891;DHT22;9071;48.220;14.480;2023-07-02T23:24:33;17.00;99.90
17891;DHT22;9071;48.220;14.480;2023-07-02T23:29:35;16.80;99.90
17891;DHT22;9071;48.220;14.480;2023-07-02T23:34:39;16.70;99.90
17891;DHT22;9071;48.220;14.480;2023-07-02T23:39:41;16.60;99.90
17891;DHT22;9071;48.220;14.480;2023-07-02T23:44:44;16.50;99.90
17891;DHT22;9071;48.220;14.480;2023-07-02T23:49:47;16.40;99.90
17891;DHT22;9071;48.220;14.480;2023-07-02T23:54:50;16.30;99.90
17891;DHT22;9071;48.220;14.480;2023-07-02T23:59:52;16.30;99.90
